createdAt,value
2017-09-24T08:34:38.362Z,19.22
2017-09-24T08:35:03.807Z,19.22
2017-09-24T08:35:29.291Z,19.26
2017-09-24T08:35:54.738Z,19.31
2017-09-24T08:36:20.193Z,19.22
2017-09-24T08:36:45.628Z,19.29
2017-09-24T08:37:11.100Z,19.31
2017-09-24T08:37:36.552Z,19.26
2017-09-24T08:38:34.502Z,19.3
2017-09-24T08:38:59.957Z,19.26
2017-09-24T08:39:25.404Z,19.37
2017-09-24T08:39:50.861Z,19.29
2017-09-24T08:40:16.312Z,19.29
2017-09-24T08:40:41.765Z,19.29
2017-09-24T08:41:07.222Z,19.3
2017-09-24T08:41:32.697Z,19.3
2017-09-24T08:41:58.142Z,19.39
2017-09-24T08:42:23.589Z,19.36
2017-09-24T08:42:49.057Z,19.31
2017-09-24T08:43:14.507Z,19.37
2017-09-24T08:43:39.948Z,19.4
2017-09-24T08:44:05.429Z,19.39
2017-09-24T08:44:30.884Z,19.4
2017-09-24T08:44:56.340Z,19.4
2017-09-24T08:45:21.779Z,19.27
2017-09-24T08:45:47.238Z,19.34
2017-09-24T08:46:12.698Z,19.4
2017-09-24T08:46:38.159Z,19.36
2017-09-24T08:47:03.589Z,19.37
2017-09-24T08:47:29.058Z,19.41
2017-09-24T08:47:54.500Z,19.41
2017-09-24T08:48:19.955Z,19.4
2017-09-24T08:48:45.403Z,19.36
2017-09-24T08:49:10.847Z,19.37
2017-09-24T08:49:36.307Z,19.39
2017-09-24T08:50:01.776Z,19.37
2017-09-24T08:50:27.229Z,19.39
2017-09-24T08:50:52.666Z,19.47
2017-09-24T08:51:18.149Z,19.49
2017-09-24T08:51:43.633Z,19.41
2017-09-24T08:52:09.084Z,19.48
2017-09-24T08:52:34.543Z,19.48
2017-09-24T08:53:00.000Z,19.47
2017-09-24T08:53:25.456Z,19.49
2017-09-24T08:53:50.909Z,19.45
2017-09-24T08:54:16.362Z,19.51
2017-09-24T08:54:41.808Z,19.41
2017-09-24T08:55:07.268Z,19.44
2017-09-24T08:55:32.713Z,19.47
2017-09-24T08:55:58.171Z,19.41
2017-09-24T08:56:23.632Z,19.44
2017-09-24T08:56:49.081Z,19.44
2017-09-24T08:57:14.520Z,19.41
2017-09-24T08:57:39.977Z,19.55
2017-09-24T08:58:05.454Z,19.54
2017-09-24T08:58:30.941Z,19.45
2017-09-24T08:58:56.366Z,19.51
2017-09-24T08:59:21.826Z,19.52
2017-09-24T08:59:47.280Z,19.44
2017-09-24T09:00:12.716Z,19.52
2017-09-24T09:00:38.162Z,19.41
2017-09-24T09:01:03.613Z,19.48
2017-09-24T09:01:29.062Z,19.51
2017-09-24T09:01:54.509Z,19.55
2017-09-24T09:02:19.957Z,19.49
2017-09-24T09:02:45.406Z,19.51
2017-09-24T09:03:10.853Z,19.48
2017-09-24T09:03:36.310Z,19.54
2017-09-24T09:04:01.770Z,19.55
2017-09-24T09:04:27.219Z,19.51
2017-09-24T09:04:52.670Z,19.52
2017-09-24T09:05:18.126Z,19.48
2017-09-24T09:05:43.576Z,19.52
2017-09-24T09:06:09.037Z,19.54
2017-09-24T09:06:34.501Z,19.58
2017-09-24T09:06:59.957Z,19.55
2017-09-24T09:07:25.416Z,19.62
2017-09-24T09:07:50.870Z,19.54
2017-09-24T09:08:16.333Z,19.54
2017-09-24T09:08:41.794Z,19.56
2017-09-24T09:09:07.268Z,19.49
2017-09-24T09:09:32.707Z,19.52
2017-09-24T09:09:58.165Z,19.52
2017-09-24T09:10:23.622Z,19.63
2017-09-24T09:10:49.079Z,19.49
2017-09-24T09:11:14.540Z,19.56
2017-09-24T09:11:40.015Z,19.62
2017-09-24T09:12:05.477Z,19.62
2017-09-24T09:12:30.942Z,19.54
2017-09-24T09:12:56.386Z,19.58
2017-09-24T09:13:21.852Z,19.45
2017-09-24T09:13:47.302Z,19.47
2017-09-24T09:14:12.763Z,19.54
2017-09-24T09:14:38.211Z,19.51
2017-09-24T09:15:03.651Z,19.49
2017-09-24T09:15:29.115Z,19.55
2017-09-24T09:15:54.549Z,19.56
2017-09-24T09:16:20.007Z,19.59
2017-09-24T09:16:45.457Z,19.58
2017-09-24T09:17:10.907Z,19.51
2017-09-24T09:17:36.357Z,19.48
2017-09-24T09:18:01.816Z,19.55
2017-09-24T09:18:27.283Z,19.59
2017-09-24T09:18:52.735Z,19.49
2017-09-24T09:19:18.197Z,19.54
2017-09-24T09:19:43.655Z,19.56
2017-09-24T09:20:09.121Z,19.63
2017-09-24T09:20:34.576Z,19.59
2017-09-24T09:21:00.042Z,19.55
2017-09-24T09:21:25.492Z,19.63
2017-09-24T09:21:50.954Z,19.63
2017-09-24T09:22:16.423Z,19.62
2017-09-24T09:22:41.874Z,19.58
2017-09-24T09:23:07.351Z,19.56
2017-09-24T09:23:32.818Z,19.56
2017-09-24T09:23:58.273Z,19.64
2017-09-24T09:24:23.740Z,19.62
2017-09-24T09:24:49.187Z,19.62
2017-09-24T09:25:14.641Z,19.63
2017-09-24T09:25:40.099Z,19.66
2017-09-24T09:26:05.582Z,19.62
2017-09-24T09:26:31.044Z,19.67
2017-09-24T09:26:56.507Z,19.58
2017-09-24T09:27:21.962Z,19.62
2017-09-24T09:27:47.412Z,19.62
2017-09-24T09:28:12.862Z,19.66
2017-09-24T09:28:38.309Z,19.62
2017-09-24T09:29:03.760Z,19.67
2017-09-24T09:29:29.210Z,19.64
2017-09-24T09:29:54.662Z,19.74
2017-09-24T09:30:20.126Z,19.59
2017-09-24T09:30:45.581Z,19.62
2017-09-24T09:31:11.031Z,19.62
2017-09-24T09:31:36.448Z,19.64
2017-09-24T09:32:01.900Z,19.67
2017-09-24T09:32:27.357Z,19.67
2017-09-24T09:32:52.827Z,19.64
2017-09-24T09:33:18.295Z,19.64
2017-09-24T09:33:43.748Z,19.59
2017-09-24T09:34:09.199Z,19.54
2017-09-24T09:34:34.652Z,19.64
2017-09-24T09:35:00.110Z,19.63
2017-09-24T09:35:25.571Z,19.58
2017-09-24T09:35:51.028Z,19.62
2017-09-24T09:36:16.498Z,19.59
2017-09-24T09:36:41.944Z,19.62
2017-09-24T09:37:07.408Z,19.62
2017-09-24T09:37:32.861Z,19.58
2017-09-24T09:37:58.320Z,19.63
2017-09-24T09:38:23.780Z,19.59
2017-09-24T09:38:49.218Z,19.56
2017-09-24T09:39:14.687Z,19.71
2017-09-24T09:39:40.139Z,19.59
2017-09-24T09:40:05.602Z,19.63
2017-09-24T09:40:31.062Z,19.58
2017-09-24T09:40:56.512Z,19.58
2017-09-24T09:41:21.985Z,19.73
2017-09-24T09:41:47.440Z,19.69
2017-09-24T09:42:12.897Z,19.55
2017-09-24T09:42:38.354Z,19.69
2017-09-24T09:43:03.819Z,19.69
2017-09-24T09:43:29.266Z,19.73
2017-09-24T09:43:54.717Z,19.69
2017-09-24T09:44:20.168Z,19.73
2017-09-24T09:44:45.632Z,19.73
2017-09-24T09:45:11.106Z,19.71
2017-09-24T09:45:36.573Z,19.73
2017-09-24T09:46:02.028Z,19.74
2017-09-24T09:46:27.524Z,19.62
2017-09-24T09:46:52.980Z,19.64
2017-09-24T09:47:18.488Z,19.79
2017-09-24T09:47:43.958Z,19.67
2017-09-24T09:48:09.409Z,19.7
2017-09-24T09:48:34.874Z,19.71
2017-09-24T09:49:00.335Z,19.71
2017-09-24T09:49:25.779Z,19.76
2017-09-24T09:49:51.235Z,19.7
2017-09-24T09:50:16.689Z,19.71
2017-09-24T09:50:42.153Z,19.73
2017-09-24T09:51:07.615Z,19.79
2017-09-24T09:51:33.070Z,19.76
2017-09-24T09:51:58.526Z,19.76
2017-09-24T09:52:23.979Z,19.74
2017-09-24T09:52:49.440Z,19.74
2017-09-24T09:53:14.897Z,19.74
2017-09-24T09:53:40.349Z,19.77
2017-09-24T09:54:05.809Z,19.73
2017-09-24T09:54:31.261Z,19.74
2017-09-24T09:54:56.725Z,19.77
2017-09-24T09:55:22.174Z,19.74
2017-09-24T09:55:47.623Z,19.76
2017-09-24T09:56:13.104Z,19.71
2017-09-24T09:56:38.554Z,19.76
2017-09-24T09:57:04.017Z,19.81
2017-09-24T09:57:29.496Z,19.71
2017-09-24T09:57:54.941Z,19.82
2017-09-24T09:58:20.392Z,19.73
2017-09-24T09:58:45.854Z,19.77
2017-09-24T09:59:11.313Z,19.74
2017-09-24T09:59:36.782Z,19.73
2017-09-24T10:00:02.240Z,19.76
2017-09-24T10:00:27.692Z,19.79
2017-09-24T10:00:53.147Z,19.73
2017-09-24T10:01:18.590Z,19.73
2017-09-24T10:02:11.493Z,19.77
2017-09-24T10:02:36.930Z,19.79
2017-09-24T10:03:02.383Z,19.85
2017-09-24T10:03:27.832Z,19.74
2017-09-24T10:03:53.277Z,19.82
2017-09-24T10:05:01.428Z,19.81
2017-09-24T10:05:26.885Z,19.89
2017-09-24T10:05:52.391Z,19.79
2017-09-24T10:06:17.834Z,19.82
2017-09-24T10:06:43.277Z,19.84
2017-09-24T10:07:08.725Z,19.76
2017-09-24T10:07:34.183Z,19.84
2017-09-24T10:07:59.637Z,19.84
2017-09-24T10:08:25.064Z,19.84
2017-09-24T10:08:50.574Z,19.79
2017-09-24T10:09:16.014Z,19.74
2017-09-24T10:09:41.447Z,19.85
2017-09-24T10:10:06.867Z,19.76
2017-09-24T10:10:32.335Z,19.84
2017-09-24T10:10:57.796Z,19.82
2017-09-24T10:11:23.267Z,19.79
2017-09-24T10:11:48.736Z,19.81
2017-09-24T10:12:14.156Z,19.81
2017-09-24T10:12:39.592Z,19.86
2017-09-24T10:13:05.042Z,19.85
2017-09-24T10:13:30.485Z,19.79
2017-09-24T10:13:55.947Z,19.81
2017-09-24T10:14:21.424Z,19.86
2017-09-24T10:14:46.867Z,19.79
2017-09-24T10:15:12.346Z,19.86
2017-09-24T10:15:37.794Z,19.85
2017-09-24T10:16:03.264Z,19.88
2017-09-24T10:16:28.692Z,19.84
2017-09-24T10:16:54.154Z,19.86
2017-09-24T10:17:19.603Z,19.79
2017-09-24T10:17:45.051Z,19.82
2017-09-24T10:18:10.519Z,19.85
2017-09-24T10:18:35.969Z,19.81
2017-09-24T10:19:01.436Z,19.86
2017-09-24T10:19:26.869Z,19.77
2017-09-24T10:19:52.325Z,19.88
2017-09-24T10:20:17.783Z,19.88
2017-09-24T10:20:43.244Z,19.82
2017-09-24T10:21:08.700Z,19.81
2017-09-24T10:21:34.140Z,19.88
2017-09-24T10:21:59.605Z,19.86
2017-09-24T10:22:25.055Z,19.85
2017-09-24T10:22:50.494Z,19.84
2017-09-24T10:23:15.977Z,19.89
2017-09-24T10:23:41.399Z,19.89
2017-09-24T10:24:29.200Z,19.82
2017-09-24T10:24:54.662Z,19.95
2017-09-24T10:25:20.106Z,19.82
2017-09-24T10:25:45.567Z,19.99
2017-09-24T10:26:11.027Z,19.95
2017-09-24T10:26:36.472Z,19.99
2017-09-24T10:27:01.930Z,19.95
2017-09-24T10:27:27.420Z,19.96
2017-09-24T10:27:52.897Z,19.92
2017-09-24T10:28:18.348Z,19.92
2017-09-24T10:28:43.804Z,19.99
2017-09-24T10:29:09.256Z,19.99
2017-09-24T10:29:34.703Z,19.92
2017-09-24T10:30:00.177Z,19.96
2017-09-24T10:30:25.623Z,19.92
2017-09-24T10:30:51.074Z,19.91
2017-09-24T10:31:16.531Z,19.99
2017-09-24T10:31:41.988Z,19.95
2017-09-24T10:32:07.447Z,19.92
2017-09-24T10:32:32.894Z,19.99
2017-09-24T10:32:58.373Z,19.92
2017-09-24T10:33:23.819Z,19.95
2017-09-24T10:33:49.279Z,19.91
2017-09-24T10:34:14.726Z,19.92
2017-09-24T10:34:40.193Z,20.02
2017-09-24T10:35:05.645Z,19.92
2017-09-24T10:35:31.103Z,20.02
2017-09-24T10:35:56.575Z,19.99
2017-09-24T10:36:22.023Z,19.95
2017-09-24T10:36:47.472Z,19.91
2017-09-24T10:37:12.902Z,19.92
2017-09-24T10:37:38.356Z,19.96
2017-09-24T10:38:03.809Z,19.94
2017-09-24T10:38:29.279Z,19.96
2017-09-24T10:38:54.741Z,19.94
2017-09-24T10:39:20.204Z,19.95
2017-09-24T10:39:45.654Z,19.92
2017-09-24T10:40:11.119Z,19.92
2017-09-24T10:40:36.594Z,19.91
2017-09-24T10:41:02.052Z,19.95
2017-09-24T10:41:27.508Z,19.94
2017-09-24T10:41:52.973Z,19.95
2017-09-24T10:42:18.430Z,19.96
2017-09-24T10:42:43.893Z,19.94
2017-09-24T10:43:09.351Z,19.95
2017-09-24T10:43:34.803Z,19.96
2017-09-24T10:44:00.284Z,19.94
2017-09-24T10:44:25.728Z,19.89
2017-09-24T10:44:51.184Z,19.92
2017-09-24T10:45:16.653Z,19.94
2017-09-24T10:45:42.108Z,19.92
2017-09-24T10:46:07.554Z,19.95
2017-09-24T10:46:33.021Z,20
2017-09-24T10:46:58.446Z,19.95
2017-09-24T10:47:23.907Z,19.96
2017-09-24T10:47:49.359Z,19.95
2017-09-24T10:48:14.826Z,19.92
2017-09-24T10:48:40.272Z,19.92
2017-09-24T10:49:05.721Z,19.94
2017-09-24T10:49:31.176Z,20
2017-09-24T10:49:56.644Z,19.95
2017-09-24T10:50:22.103Z,20
2017-09-24T10:50:47.560Z,19.95
2017-09-24T10:51:13.014Z,20.03
2017-09-24T10:51:38.474Z,20.03
2017-09-24T10:52:03.960Z,19.95
2017-09-24T10:52:29.428Z,20.03
2017-09-24T10:52:54.939Z,19.95
2017-09-24T10:53:20.354Z,20
2017-09-24T10:53:45.823Z,19.95
2017-09-24T10:54:11.275Z,19.94
2017-09-24T10:54:36.732Z,19.96
2017-09-24T10:55:02.177Z,20.02
2017-09-24T10:55:27.642Z,19.99
2017-09-24T10:55:53.089Z,19.96
2017-09-24T10:56:18.530Z,20.03
2017-09-24T10:56:43.981Z,20
2017-09-24T10:57:09.475Z,19.96
2017-09-24T10:58:17.595Z,19.96
2017-09-24T10:58:43.034Z,19.99
2017-09-24T10:59:08.483Z,19.99
2017-09-24T10:59:33.938Z,19.99
2017-09-24T10:59:59.398Z,19.99
2017-09-24T11:00:24.859Z,19.96
2017-09-24T11:00:50.326Z,19.99
2017-09-24T11:01:15.769Z,19.99
2017-09-24T11:01:41.227Z,19.99
2017-09-24T11:02:06.702Z,19.96
2017-09-24T11:02:32.175Z,20
2017-09-24T11:02:57.633Z,20.06
2017-09-24T11:03:23.088Z,20.02
2017-09-24T11:03:48.545Z,20.04
2017-09-24T11:04:14.007Z,20
2017-09-24T11:04:39.455Z,19.99
2017-09-24T11:05:04.926Z,20
2017-09-24T11:05:30.374Z,20.04
2017-09-24T11:05:55.817Z,19.96
2017-09-24T11:06:21.268Z,19.95
2017-09-24T11:06:46.728Z,20.06
2017-09-24T11:07:12.193Z,19.99
2017-09-24T11:07:37.644Z,20
2017-09-24T11:08:03.115Z,20.06
2017-09-24T11:08:28.602Z,20.04
2017-09-24T11:08:54.049Z,20.02
2017-09-24T11:09:19.505Z,20.06
2017-09-24T11:09:44.973Z,20.02
2017-09-24T11:10:10.425Z,20.06
2017-09-24T11:10:35.879Z,19.95
2017-09-24T11:11:01.327Z,20.09
2017-09-24T11:11:26.791Z,19.99
2017-09-24T11:11:52.236Z,20
2017-09-24T11:12:17.693Z,20.06
2017-09-24T11:12:43.137Z,20.04
2017-09-24T11:13:08.584Z,19.96
2017-09-24T11:13:34.046Z,20.06
2017-09-24T11:13:59.475Z,20
2017-09-24T11:14:24.950Z,20.06
2017-09-24T11:14:50.408Z,20.09
2017-09-24T11:15:15.872Z,20.06
2017-09-24T11:15:41.331Z,20.06
2017-09-24T11:16:06.782Z,20.03
2017-09-24T11:16:32.238Z,20.07
2017-09-24T11:16:57.688Z,20.1
2017-09-24T11:17:23.144Z,20.03
2017-09-24T11:17:48.599Z,20.07
2017-09-24T11:18:14.052Z,20.03
2017-09-24T11:18:39.508Z,20.06
2017-09-24T11:19:04.967Z,20.11
2017-09-24T11:19:30.421Z,20.13
2017-09-24T11:19:55.874Z,20.07
2017-09-24T11:20:21.331Z,20.04
2017-09-24T11:20:46.783Z,20.11
2017-09-24T11:21:12.231Z,20.09
2017-09-24T11:21:37.676Z,20.07
2017-09-24T11:22:03.158Z,20.06
2017-09-24T11:22:28.582Z,20.09
2017-09-24T11:22:54.032Z,20.14
2017-09-24T11:23:19.482Z,20.1
2017-09-24T11:23:44.960Z,20.1
2017-09-24T11:24:10.395Z,20.06
2017-09-24T11:24:35.847Z,20.07
2017-09-24T11:25:01.329Z,20.04
2017-09-24T11:25:26.783Z,20.09
2017-09-24T11:25:52.241Z,20.09
2017-09-24T11:26:17.769Z,20.1
2017-09-24T11:26:43.219Z,20.06
2017-09-24T11:27:08.681Z,20.04
2017-09-24T11:27:34.143Z,20.06
2017-09-24T11:27:59.588Z,20.1
2017-09-24T11:28:25.041Z,20.14
2017-09-24T11:28:50.508Z,20.13
2017-09-24T11:29:15.968Z,20.06
2017-09-24T11:29:41.448Z,20.04
2017-09-24T11:30:06.923Z,20.07
2017-09-24T11:30:32.366Z,20.11
2017-09-24T11:30:57.823Z,20.16
2017-09-24T11:31:23.310Z,20.1
2017-09-24T11:31:48.731Z,20.14
2017-09-24T11:32:14.186Z,20.04
2017-09-24T11:32:39.658Z,20.04
2017-09-24T11:33:05.114Z,20.13
2017-09-24T11:33:30.577Z,20.09
2017-09-24T11:33:56.039Z,20.11
2017-09-24T11:34:21.499Z,20.13
2017-09-24T11:34:46.957Z,20.14
2017-09-24T11:35:12.416Z,20.19
2017-09-24T11:35:37.858Z,20.1
2017-09-24T11:36:03.321Z,20.14
2017-09-24T11:36:28.763Z,20.21
2017-09-24T11:36:55.703Z,20.21
2017-09-24T11:37:21.153Z,20.16
2017-09-24T11:37:46.622Z,20.16
2017-09-24T11:38:12.085Z,20.14
2017-09-24T11:38:37.540Z,20.19
2017-09-24T11:39:02.997Z,20.18
2017-09-24T11:39:28.461Z,20.21
2017-09-24T11:39:53.918Z,20.16
2017-09-24T11:40:19.372Z,20.16
2017-09-24T11:40:44.839Z,20.19
2017-09-24T11:41:10.300Z,20.13
2017-09-24T11:41:35.738Z,20.22
2017-09-24T11:42:01.176Z,20.14
2017-09-24T11:42:27.597Z,20.13
2017-09-24T11:42:53.929Z,20.14
2017-09-24T11:45:27.743Z,20.16
2017-09-24T11:45:53.222Z,20.16
2017-09-24T11:46:18.656Z,20.22
2017-09-24T11:47:11.518Z,20.19
2017-09-24T11:47:36.969Z,20.18
2017-09-24T11:48:02.426Z,20.19
2017-09-24T11:48:27.885Z,20.22
2017-09-24T11:48:53.331Z,20.19
2017-09-24T11:49:18.799Z,20.18
2017-09-24T11:49:44.268Z,20.19
2017-09-24T11:50:09.727Z,20.14
2017-09-24T11:50:35.180Z,20.18
2017-09-24T11:51:00.636Z,20.16
2017-09-24T11:51:26.081Z,20.19
2017-09-24T11:51:51.541Z,20.18
2017-09-24T11:52:16.997Z,20.14
2017-09-24T11:52:42.448Z,20.19
2017-09-24T11:53:07.899Z,20.21
2017-09-24T11:53:33.363Z,20.11
2017-09-24T11:53:58.810Z,20.25
2017-09-24T11:54:24.268Z,20.21
2017-09-24T11:54:49.712Z,20.13
2017-09-24T12:01:12.774Z,22.63
2017-09-24T12:32:32.340Z,20.5
2017-09-24T12:32:57.793Z,20.47
2017-09-24T12:33:23.251Z,20.5
2017-09-24T12:33:48.694Z,20.48
2017-09-24T12:34:14.148Z,20.52
2017-09-24T12:34:39.617Z,20.5
2017-09-24T12:35:05.076Z,20.51
2017-09-24T12:35:30.533Z,20.43
2017-09-24T12:35:55.990Z,20.5
2017-09-24T12:36:21.439Z,20.5
2017-09-24T12:36:46.906Z,20.5
2017-09-24T12:37:12.366Z,20.51
2017-09-24T12:37:37.822Z,20.5
2017-09-24T12:38:03.278Z,20.48
2017-09-24T12:38:28.740Z,20.5
2017-09-24T12:38:54.195Z,20.39
2017-09-24T12:39:19.652Z,20.44
2017-09-24T12:39:45.108Z,20.39
2017-09-24T12:40:10.564Z,20.43
2017-09-24T12:40:36.026Z,20.41
2017-09-24T12:41:01.485Z,20.48
2017-09-24T12:41:26.935Z,20.5
2017-09-24T12:41:52.391Z,20.5
2017-09-24T12:42:17.851Z,20.47
2017-09-24T12:42:43.319Z,20.5
2017-09-24T12:43:08.791Z,20.47
2017-09-24T12:43:34.269Z,20.39
2017-09-24T12:43:59.719Z,20.48
2017-09-24T12:44:25.169Z,20.44
2017-09-24T12:44:50.620Z,20.43
2017-09-24T12:45:16.081Z,20.37
2017-09-24T12:45:41.533Z,20.44
2017-09-24T12:46:06.995Z,20.41
2017-09-24T12:46:32.442Z,20.44
2017-09-24T12:46:57.890Z,20.39
2017-09-24T12:47:23.346Z,20.43
2017-09-24T12:47:48.810Z,20.43
2017-09-24T12:48:14.273Z,20.4
2017-09-24T12:48:39.726Z,20.39
2017-09-24T12:49:05.194Z,20.44
2017-09-24T12:49:30.659Z,20.39
2017-09-24T12:49:56.123Z,20.39
2017-09-24T12:50:21.576Z,20.44
2017-09-24T12:50:47.043Z,20.4
2017-09-24T12:51:12.504Z,20.39
2017-09-24T12:51:37.962Z,20.41
2017-09-24T12:52:03.425Z,20.4
2017-09-24T12:52:28.881Z,20.39
2017-09-24T12:52:54.331Z,20.37
2017-09-24T12:53:19.782Z,20.39
2017-09-24T12:53:45.221Z,20.44
2017-09-24T12:54:10.685Z,20.43
2017-09-24T12:54:36.150Z,20.39
2017-09-24T12:55:01.607Z,20.48
2017-09-24T12:55:27.066Z,20.47
2017-09-24T12:55:52.530Z,20.39
2017-09-24T12:56:17.994Z,20.44
2017-09-24T12:56:43.444Z,20.44
2017-09-24T12:57:08.914Z,20.43
2017-09-24T12:57:34.373Z,20.44
2017-09-24T12:57:59.821Z,20.44
2017-09-24T12:58:25.273Z,20.5
2017-09-24T12:58:50.736Z,20.43
2017-09-24T12:59:16.193Z,20.48
2017-09-24T12:59:41.652Z,20.47
2017-09-24T13:00:07.119Z,20.41
2017-09-24T13:00:32.572Z,20.4
2017-09-24T13:00:58.014Z,20.37
2017-09-24T13:01:23.471Z,20.47
2017-09-24T13:01:48.919Z,20.5
2017-09-24T13:02:14.373Z,20.48
2017-09-24T13:02:39.836Z,20.5
2017-09-24T13:03:05.297Z,20.5
2017-09-24T13:03:30.725Z,20.5
2017-09-24T13:03:56.182Z,20.4
2017-09-24T13:04:21.648Z,20.47
2017-09-24T13:04:47.090Z,20.51
2017-09-24T13:05:12.548Z,20.51
2017-09-24T13:05:37.996Z,20.47
2017-09-24T13:06:03.455Z,20.44
2017-09-24T13:06:28.912Z,20.52
2017-09-24T13:06:54.369Z,20.5
2017-09-24T13:07:19.844Z,20.43
2017-09-24T13:07:45.381Z,20.5
2017-09-24T13:08:10.824Z,20.47
2017-09-24T13:08:36.269Z,20.47
2017-09-24T13:09:01.727Z,20.5
2017-09-24T13:09:27.193Z,20.5
2017-09-24T13:09:52.649Z,20.5
2017-09-24T13:10:18.105Z,20.44
2017-09-24T13:10:43.563Z,20.47
2017-09-24T13:11:09.026Z,20.5
2017-09-24T13:11:34.474Z,20.47
2017-09-24T13:11:59.936Z,20.47
2017-09-24T13:12:25.394Z,20.44
2017-09-24T13:12:50.853Z,20.5
2017-09-24T13:13:16.311Z,20.51
2017-09-24T13:13:41.768Z,20.48
2017-09-24T13:14:07.228Z,20.43
2017-09-24T13:14:32.684Z,20.47
2017-09-24T13:14:58.152Z,20.44
2017-09-24T13:15:23.616Z,20.43
2017-09-24T13:15:49.076Z,20.43
2017-09-24T13:16:14.539Z,20.48
2017-09-24T13:16:39.990Z,20.47
2017-09-24T13:17:05.451Z,20.48
2017-09-24T13:17:30.909Z,20.47
2017-09-24T13:17:56.361Z,20.5
2017-09-24T13:18:21.831Z,20.5
2017-09-24T13:18:47.276Z,20.47
2017-09-24T13:19:12.731Z,20.47
2017-09-24T13:19:38.189Z,20.52
2017-09-24T13:20:03.643Z,20.47
2017-09-24T13:20:29.105Z,20.51
2017-09-24T13:20:54.556Z,20.55
2017-09-24T13:21:20.014Z,20.5
2017-09-24T13:21:45.475Z,20.52
2017-09-24T13:22:10.930Z,20.51
2017-09-24T13:22:36.387Z,20.52
2017-09-24T13:23:01.846Z,20.48
2017-09-24T13:23:27.300Z,20.48
2017-09-24T13:23:52.756Z,20.52
2017-09-24T13:24:18.221Z,20.5
2017-09-24T13:24:43.678Z,20.56
2017-09-24T13:25:09.139Z,20.58
2017-09-24T13:25:34.587Z,20.5
2017-09-24T13:26:00.051Z,20.58
2017-09-24T13:26:25.503Z,20.51
2017-09-24T13:26:50.972Z,20.62
2017-09-24T13:27:16.422Z,20.58
2017-09-24T13:27:41.871Z,20.58
2017-09-24T13:28:07.323Z,20.56
2017-09-24T13:28:32.783Z,20.62
2017-09-24T13:28:58.232Z,20.55
2017-09-24T13:29:23.681Z,20.6
2017-09-24T13:29:49.131Z,20.6
2017-09-24T13:30:14.598Z,20.5
2017-09-24T13:30:40.062Z,20.6
2017-09-24T13:31:05.520Z,20.58
2017-09-24T13:31:30.979Z,20.59
2017-09-24T13:31:56.439Z,20.58
2017-09-24T13:32:21.898Z,20.63
2017-09-24T13:32:47.349Z,20.6
2017-09-24T13:33:12.810Z,20.62
2017-09-24T13:33:38.292Z,20.62
2017-09-24T13:34:03.735Z,20.62
2017-09-24T13:34:29.195Z,20.65
2017-09-24T13:34:54.640Z,20.59
2017-09-24T13:35:20.113Z,20.65
2017-09-24T13:35:45.594Z,20.59
2017-09-24T13:36:11.046Z,20.58
2017-09-24T13:36:36.512Z,20.6
2017-09-24T13:37:01.962Z,20.6
2017-09-24T13:37:27.415Z,20.6
2017-09-24T13:37:52.878Z,20.58
2017-09-24T13:38:18.357Z,20.59
2017-09-24T13:38:43.798Z,20.6
2017-09-24T13:39:09.262Z,20.6
2017-09-24T13:39:34.742Z,20.56
2017-09-24T13:40:00.198Z,20.63
2017-09-24T13:40:25.641Z,20.63
2017-09-24T13:40:51.089Z,20.58
2017-09-24T13:41:16.554Z,20.6
2017-09-24T13:41:42.024Z,20.6
2017-09-24T13:42:07.472Z,20.62
2017-09-24T13:42:32.929Z,20.65
2017-09-24T13:42:58.369Z,20.6
2017-09-24T13:43:23.828Z,20.6
2017-09-24T13:43:49.291Z,20.59
2017-09-24T13:44:14.743Z,20.63
2017-09-24T13:44:40.198Z,20.6
2017-09-24T13:45:05.656Z,20.62
2017-09-24T13:45:31.109Z,20.7
2017-09-24T13:45:56.576Z,20.62
2017-09-24T13:46:22.036Z,20.62
2017-09-24T13:46:47.493Z,20.63
2017-09-24T13:47:12.943Z,20.63
2017-09-24T13:47:38.390Z,20.65
2017-09-24T13:48:03.857Z,20.6
2017-09-24T13:48:29.309Z,20.67
2017-09-24T13:48:54.761Z,20.63
2017-09-24T13:49:20.218Z,20.69
2017-09-24T13:49:45.680Z,20.69
2017-09-24T13:50:11.136Z,20.66
2017-09-24T13:50:36.579Z,20.66
2017-09-24T13:51:02.038Z,20.66
2017-09-24T13:51:27.494Z,20.72
2017-09-24T13:51:52.948Z,20.7
2017-09-24T13:52:18.397Z,20.67
2017-09-24T13:52:43.860Z,20.72
2017-09-24T13:53:09.300Z,20.75
2017-09-24T13:53:34.761Z,20.72
2017-09-24T13:54:00.248Z,20.7
2017-09-24T13:54:25.728Z,20.6
2017-09-24T13:54:51.138Z,20.69
2017-09-24T13:55:16.932Z,20.63
2017-09-24T13:55:42.414Z,20.74
2017-09-24T13:56:07.926Z,20.72
2017-09-24T13:56:33.315Z,20.7
2017-09-24T13:56:58.806Z,20.69
2017-09-24T13:57:24.256Z,20.69
2017-09-24T13:57:49.718Z,20.72
2017-09-24T13:58:15.155Z,20.72
2017-09-24T13:58:40.612Z,20.75
2017-09-24T13:59:06.065Z,20.78
2017-09-24T13:59:31.521Z,20.75
2017-09-24T13:59:56.968Z,20.8
2017-09-24T14:00:22.413Z,20.75
2017-09-24T14:00:47.886Z,20.81
2017-09-24T14:01:13.341Z,20.77
2017-09-24T14:01:38.786Z,20.77
2017-09-24T14:02:04.251Z,20.72
2017-09-24T14:02:29.698Z,20.7
2017-09-24T14:02:55.165Z,20.75
2017-09-24T14:03:20.625Z,20.77
2017-09-24T14:03:46.114Z,20.75
2017-09-24T14:04:11.558Z,20.72
2017-09-24T14:04:36.999Z,20.72
2017-09-24T14:05:02.446Z,20.7
2017-09-24T14:05:27.904Z,20.75
2017-09-24T14:05:53.363Z,20.77
2017-09-24T14:06:18.809Z,20.72
2017-09-24T14:06:44.253Z,20.75
2017-09-24T14:07:09.798Z,20.72
2017-09-24T14:07:35.258Z,20.77
2017-09-24T14:08:00.683Z,20.74
2017-09-24T14:08:26.140Z,20.75
2017-09-24T14:08:51.591Z,20.81
2017-09-24T14:09:17.040Z,20.75
2017-09-24T14:09:42.503Z,20.74
2017-09-24T14:10:07.933Z,20.72
2017-09-24T14:10:33.396Z,20.8
2017-09-24T14:10:58.875Z,20.8
2017-09-24T14:11:24.319Z,20.78
2017-09-24T14:11:49.776Z,20.84
2017-09-24T14:12:15.233Z,20.81
2017-09-24T14:12:40.673Z,20.77
2017-09-24T14:13:06.132Z,20.8
2017-09-24T14:13:31.578Z,20.78
2017-09-24T14:13:57.038Z,20.85
2017-09-24T14:14:22.551Z,20.81
2017-09-24T14:14:48.004Z,20.81
2017-09-24T14:15:13.459Z,20.8
2017-09-24T14:15:38.898Z,20.81
2017-09-24T14:16:04.355Z,20.75
2017-09-24T14:16:29.800Z,20.78
2017-09-24T14:16:55.268Z,20.8
2017-09-24T14:17:20.694Z,20.82
2017-09-24T14:17:46.137Z,20.75
2017-09-24T14:18:11.609Z,20.74
2017-09-24T14:18:37.055Z,20.7
2017-09-24T14:19:02.498Z,20.84
2017-09-24T14:19:27.933Z,20.82
2017-09-24T14:19:53.391Z,20.84
2017-09-24T14:20:18.853Z,20.74
2017-09-24T14:20:44.291Z,20.75
2017-09-24T14:21:09.745Z,20.84
2017-09-24T14:21:35.232Z,20.78
2017-09-24T14:22:00.671Z,20.8
2017-09-24T14:22:26.109Z,20.78
2017-09-24T14:22:51.576Z,20.78
2017-09-24T14:23:17.036Z,20.78
2017-09-24T14:23:42.473Z,20.92
2017-09-24T14:24:07.913Z,20.81
2017-09-24T14:24:33.376Z,20.8
2017-09-24T14:24:58.822Z,20.84
2017-09-24T14:25:24.273Z,20.84
2017-09-24T14:25:49.734Z,20.87
2017-09-24T14:26:15.195Z,20.82
2017-09-24T14:26:40.650Z,20.82
2017-09-24T14:27:06.103Z,20.87
2017-09-24T14:27:31.561Z,20.8
2017-09-24T14:27:57.011Z,20.85
2017-09-24T14:28:22.481Z,20.8
2017-09-24T14:28:47.932Z,20.87
2017-09-24T14:29:13.391Z,20.85
2017-09-24T14:29:38.841Z,20.81
2017-09-24T14:30:04.318Z,20.81
2017-09-24T14:30:29.742Z,20.81
2017-09-24T14:30:55.200Z,20.82
2017-09-24T14:31:20.663Z,20.78
2017-09-24T14:31:46.126Z,20.81
2017-09-24T14:32:11.580Z,20.93
2017-09-24T14:32:37.036Z,20.81
2017-09-24T14:33:02.480Z,20.81
2017-09-24T14:33:27.931Z,20.8
2017-09-24T14:33:53.390Z,20.81
2017-09-24T14:34:18.841Z,20.9
2017-09-24T14:34:44.313Z,20.95
2017-09-24T14:35:09.766Z,20.92
2017-09-24T14:35:35.204Z,20.9
2017-09-24T14:36:00.662Z,20.92
2017-09-24T14:36:26.108Z,20.78
2017-09-24T14:36:51.596Z,20.93
2017-09-24T14:37:17.064Z,20.97
2017-09-24T14:37:42.562Z,20.95
2017-09-24T14:38:08.025Z,20.93
2017-09-24T14:38:33.478Z,20.97
2017-09-24T14:38:58.924Z,20.88
2017-09-24T14:39:24.395Z,20.97
2017-09-24T14:39:49.856Z,20.9
2017-09-24T14:40:15.327Z,20.85
2017-09-24T14:40:40.765Z,20.92
2017-09-24T14:41:06.216Z,20.95
2017-09-24T14:41:31.688Z,20.88
2017-09-24T14:41:57.160Z,20.93
2017-09-24T14:42:22.620Z,20.88
2017-09-24T14:42:48.090Z,20.84
2017-09-24T14:43:13.574Z,20.85
2017-09-24T14:43:38.962Z,20.95
2017-09-24T14:44:04.444Z,20.85
2017-09-24T14:44:29.896Z,20.87
2017-09-24T14:44:55.345Z,20.85
2017-09-24T14:45:20.812Z,20.85
2017-09-24T14:45:46.259Z,20.97
2017-09-24T14:46:11.705Z,20.96